Time;durP1;ratioP1;P1;durP2;ratioP2;P2;SDS_P1;SDS_P2;PMS_P1;PMS_P2;Temp;Humidity;BMP_temperature;BMP_pressure;BME280_temperature;BME280_humidity;BME280_pressure;Samples;Min_cycle;Max_cycle;Signal;HPM_P1;HPM_P2
2023/05/23 00:01:36;;;;;;;11.05;9.93;;;13.70;79.20;;;;;;5010189;28;20427;-59
2023/05/23 00:04:02;;;;;;;14.48;9.77;;;13.70;77.20;;;;;;5011424;28;20018;-60
2023/05/23 00:06:28;;;;;;;14.73;10.88;;;13.70;70.80;;;;;;5015065;28;20041;-59
2023/05/23 00:08:54;;;;;;;17.70;10.82;;;13.70;63.50;;;;;;5015072;28;20029;-59
2023/05/23 00:11:25;;;;;;;13.45;11.20;;;13.60;61.00;;;;;;5013729;28;20053;-60
2023/05/23 00:13:51;;;;;;;16.52;10.77;;;13.50;61.90;;;;;;5015035;28;20030;-59
2023/05/23 00:16:17;;;;;;;14.35;10.27;;;13.50;67.50;;;;;;5014937;28;20041;-59
2023/05/23 00:18:44;;;;;;;14.43;10.43;;;13.50;64.90;;;;;;5014978;28;20380;-59
2023/05/23 00:21:10;;;;;;;10.80;9.65;;;13.50;63.40;;;;;;5013407;28;20465;-60
2023/05/23 00:23:37;;;;;;;15.68;9.48;;;13.50;65.00;;;;;;5014860;28;20481;-60
2023/05/23 00:26:03;;;;;;;14.93;10.05;;;13.50;64.80;;;;;;5014597;28;20029;-60
2023/05/23 00:28:29;;;;;;;13.82;10.63;;;13.50;55.80;;;;;;5013439;28;20037;-60
2023/05/23 00:30:55;;;;;;;11.57;9.77;;;13.50;55.50;;;;;;5013343;28;20030;-59
2023/05/23 00:33:20;;;;;;;12.30;9.90;;;13.40;56.00;;;;;;5014687;28;20048;-59
2023/05/23 00:35:47;;;;;;;12.55;10.25;;;13.30;59.80;;;;;;5014548;28;20488;-60
2023/05/23 00:38:13;;;;;;;14.95;9.65;;;13.30;67.60;;;;;;5014896;28;20038;-60
2023/05/23 00:40:39;;;;;;;15.40;11.40;;;13.30;64.20;;;;;;5013396;28;20025;-59
2023/05/23 00:43:07;;;;;;;16.75;10.00;;;13.30;70.60;;;;;;5014634;28;20442;-59
2023/05/23 00:45:32;;;;;;;26.98;9.88;;;13.30;75.10;;;;;;5014189;28;20060;-59
2023/05/23 00:47:59;;;;;;;15.80;11.60;;;13.40;65.60;;;;;;5012824;28;20025;-59
2023/05/23 00:50:28;;;;;;;14.23;9.98;;;13.30;69.30;;;;;;5014856;28;20028;-59
2023/05/23 00:52:56;;;;;;;13.75;10.93;;;13.30;69.90;;;;;;5014440;28;20339;-60
2023/05/23 00:55:24;;;;;;;15.50;10.88;;;13.30;69.40;;;;;;5014340;28;20030;-59
2023/05/23 00:57:54;;;;;;;14.05;10.48;;;13.30;63.00;;;;;;5012891;28;20041;-59
2023/05/23 01:00:20;;;;;;;16.92;9.88;;;13.20;59.80;;;;;;5014152;28;20076;-59
2023/05/23 01:02:52;;;;;;;12.27;10.35;;;13.20;62.40;;;;;;5013876;28;20033;-60
2023/05/23 01:05:21;;;;;;;19.83;10.10;;;13.10;62.20;;;;;;5014023;28;20025;-60
2023/05/23 01:07:47;;;;;;;14.35;11.35;;;13.00;68.80;;;;;;5012724;28;20040;-60
2023/05/23 01:10:15;;;;;;;27.33;12.13;;;12.90;76.90;;;;;;5014077;28;20065;-60
2023/05/23 01:13:01;;;;;;;15.50;11.65;;;13.00;85.10;;;;;;5013772;28;20026;-59
2023/05/23 01:15:36;;;;;;;18.02;12.00;;;13.00;82.10;;;;;;5013789;28;20108;-59
2023/05/23 01:18:14;;;;;;;14.60;11.13;;;13.10;85.10;;;;;;5013559;28;20026;-60
2023/05/23 01:20:54;;;;;;;14.73;10.65;;;13.10;77.80;;;;;;5014060;28;20030;-59
2023/05/23 01:23:23;;;;;;;19.60;10.10;;;13.00;70.00;;;;;;5013852;28;20088;-59
2023/05/23 01:26:03;;;;;;;15.43;10.57;;;12.80;73.40;;;;;;5013485;28;20026;-60
2023/05/23 01:28:36;;;;;;;20.35;10.95;;;12.80;76.70;;;;;;5013660;28;20105;-59
2023/05/23 01:31:03;;;;;;;19.13;12.15;;;12.80;76.90;;;;;;5013771;28;20030;-60
2023/05/23 01:33:31;;;;;;;13.65;10.90;;;12.80;77.30;;;;;;5012230;28;20120;-60
2023/05/23 01:36:00;;;;;;;18.38;11.00;;;12.80;76.90;;;;;;5013374;28;20350;-60
2023/05/23 01:38:26;;;;;;;13.05;11.68;;;12.80;79.70;;;;;;5013384;28;20533;-60
2023/05/23 01:40:53;;;;;;;12.68;11.38;;;12.80;77.40;;;;;;5013409;28;20114;-60
2023/05/23 01:43:19;;;;;;;16.55;11.20;;;12.80;81.90;;;;;;5013102;28;20026;-59
2023/05/23 01:45:45;;;;;;;17.23;11.25;;;12.80;79.20;;;;;;5012698;28;20018;-59
2023/05/23 01:48:12;;;;;;;13.15;11.75;;;12.70;80.60;;;;;;5013109;28;20022;-59
2023/05/23 01:50:38;;;;;;;16.13;11.52;;;12.80;80.80;;;;;;5013625;28;20425;-59
2023/05/23 01:53:04;;;;;;;17.35;11.20;;;12.80;80.90;;;;;;5013395;28;20029;-59
2023/05/23 01:55:31;;;;;;;12.85;10.95;;;12.80;75.80;;;;;;5013126;28;20022;-59
2023/05/23 01:57:58;;;;;;;16.63;10.75;;;12.80;75.40;;;;;;5013029;28;20033;-60
2023/05/23 02:00:24;;;;;;;12.50;11.23;;;12.80;71.00;;;;;;5013130;28;20065;-60
2023/05/23 02:02:50;;;;;;;13.73;10.07;;;12.80;72.50;;;;;;5013022;28;20423;-60
2023/05/23 02:05:16;;;;;;;18.85;10.77;;;12.80;72.00;;;;;;5012802;28;20060;-60
2023/05/23 02:07:42;;;;;;;21.17;11.63;;;12.80;73.70;;;;;;5012941;28;20061;-58
2023/05/23 02:10:08;;;;;;;13.02;11.07;;;12.70;76.90;;;;;;5013040;28;20029;-59
2023/05/23 02:12:34;;;;;;;18.77;12.20;;;12.80;80.70;;;;;;5012789;28;20113;-59
2023/05/23 02:15:00;;;;;;;16.48;12.40;;;12.80;82.20;;;;;;5013026;28;20121;-60
2023/05/23 02:17:25;;;;;;;15.85;12.18;;;12.80;84.10;;;;;;5012692;28;20183;-59
2023/05/23 02:19:51;;;;;;;13.98;10.90;;;12.80;86.00;;;;;;5012527;28;20036;-59
2023/05/23 02:22:16;;;;;;;14.43;11.43;;;12.90;86.10;;;;;;5012763;28;20072;-59
2023/05/23 02:24:42;;;;;;;13.48;11.15;;;12.90;85.60;;;;;;5012608;28;20022;-60
2023/05/23 02:27:08;;;;;;;18.13;11.40;;;13.00;86.80;;;;;;5012429;28;20022;-59
2023/05/23 02:29:33;;;;;;;16.20;12.35;;;13.00;90.00;;;;;;5011761;28;20022;-60
2023/05/23 02:31:59;;;;;;;14.20;12.60;;;13.10;89.10;;;;;;5011598;28;20342;-60
2023/05/23 02:34:25;;;;;;;16.10;12.95;;;13.20;86.80;;;;;;5012301;28;20029;-60
2023/05/23 02:36:50;;;;;;;13.68;11.45;;;13.20;83.90;;;;;;5011819;28;20057;-58
2023/05/23 02:39:17;;;;;;;15.13;12.30;;;13.20;83.40;;;;;;5012231;28;20033;-60
2023/05/23 02:41:42;;;;;;;14.23;11.90;;;13.20;79.40;;;;;;5011992;28;20117;-60
2023/05/23 02:44:08;;;;;;;13.93;12.35;;;13.20;81.40;;;;;;5012301;28;20109;-60
2023/05/23 02:46:33;;;;;;;16.83;11.70;;;13.20;82.90;;;;;;5010917;28;20032;-60
2023/05/23 02:48:59;;;;;;;18.10;13.60;;;13.20;82.50;;;;;;5010828;28;20030;-60
2023/05/23 02:51:25;;;;;;;19.33;13.23;;;13.10;83.70;;;;;;5012371;28;20497;-60
2023/05/23 02:53:51;;;;;;;15.05;12.32;;;13.10;85.00;;;;;;5012249;28;20030;-59
2023/05/23 02:56:17;;;;;;;16.85;12.90;;;13.10;84.80;;;;;;5011998;28;20029;-60
2023/05/23 02:58:43;;;;;;;19.58;13.57;;;13.10;86.80;;;;;;5011902;28;20117;-58
2023/05/23 03:01:09;;;;;;;21.15;14.13;;;13.10;88.90;;;;;;5012125;28;20101;-59
2023/05/23 03:03:35;;;;;;;27.60;13.57;;;13.20;88.50;;;;;;5012003;28;20037;-60
2023/05/23 03:06:03;;;;;;;26.83;14.52;;;13.20;88.10;;;;;;5010499;28;20025;-60
2023/05/23 03:08:29;;;;;;;17.67;13.85;;;13.10;90.80;;;;;;5012062;28;20037;-60
2023/05/23 03:10:55;;;;;;;21.95;14.18;;;13.20;86.90;;;;;;5011987;28;20504;-60
2023/05/23 03:13:21;;;;;;;21.05;13.88;;;13.20;88.90;;;;;;5011732;28;20041;-59
2023/05/23 03:15:52;;;;;;;15.95;13.55;;;13.20;88.30;;;;;;5011988;28;20041;-60
2023/05/23 03:18:17;;;;;;;22.73;14.00;;;13.20;87.50;;;;;;5011735;28;20025;-59
2023/05/23 03:20:43;;;;;;;19.05;13.27;;;13.20;88.10;;;;;;5011850;28;20108;-60
2023/05/23 03:23:08;;;;;;;17.25;12.48;;;13.20;82.20;;;;;;5011715;28;20030;-59
2023/05/23 03:25:34;;;;;;;17.98;12.98;;;13.10;81.10;;;;;;5011799;28;20049;-59
2023/05/23 03:28:00;;;;;;;17.75;14.05;;;13.10;82.50;;;;;;5011726;28;20022;-59
2023/05/23 03:30:26;;;;;;;18.33;14.93;;;13.00;88.20;;;;;;5012127;28;20030;-60
2023/05/23 03:32:52;;;;;;;23.60;15.30;;;13.00;91.40;;;;;;5011983;28;20026;-59
2023/05/23 03:35:18;;;;;;;21.15;14.65;;;13.00;90.40;;;;;;5011739;28;20025;-60
2023/05/23 03:37:44;;;;;;;17.02;13.32;;;12.90;89.10;;;;;;5010410;28;20776;-59
2023/05/23 03:40:09;;;;;;;25.88;14.43;;;13.00;90.20;;;;;;5013682;28;20044;-59
2023/05/23 03:42:37;;;;;;;21.52;14.23;;;13.00;90.80;;;;;;5015687;28;20452;-59
2023/05/23 03:45:03;;;;;;;16.15;13.68;;;13.00;88.40;;;;;;5015378;28;20109;-59
2023/05/23 03:47:29;;;;;;;18.17;14.30;;;13.00;86.90;;;;;;5015495;28;20476;-59
2023/05/23 03:49:55;;;;;;;29.30;14.65;;;13.10;85.40;;;;;;5015354;28;20050;-59
2023/05/23 03:52:20;;;;;;;23.50;14.38;;;13.10;85.70;;;;;;5015476;28;20033;-59
2023/05/23 03:54:46;;;;;;;22.55;15.95;;;13.00;82.80;;;;;;5015341;28;20053;-60
2023/05/23 03:57:12;;;;;;;22.95;15.63;;;12.90;88.90;;;;;;5015393;28;20034;-59
2023/05/23 03:59:37;;;;;;;18.42;14.95;;;13.00;88.00;;;;;;5015239;28;20424;-59
2023/05/23 04:02:03;;;;;;;19.65;14.68;;;13.10;88.90;;;;;;5015144;28;20112;-60
2023/05/23 04:04:29;;;;;;;18.05;14.98;;;13.20;89.30;;;;;;5015238;28;20018;-60
2023/05/23 04:06:56;;;;;;;23.83;15.50;;;13.20;90.40;;;;;;5013733;28;20026;-59
2023/05/23 04:09:22;;;;;;;16.45;14.63;;;13.30;90.80;;;;;;5015176;28;20025;-60
2023/05/23 04:11:48;;;;;;;20.35;14.05;;;13.50;90.10;;;;;;5015266;28;20033;-60
2023/05/23 04:14:13;;;;;;;19.05;14.55;;;13.50;86.70;;;;;;5014961;28;20060;-60
2023/05/23 04:16:41;;;;;;;25.75;15.02;;;13.70;83.60;;;;;;5013890;28;20133;-60
2023/05/23 04:19:07;;;;;;;20.67;13.23;;;13.80;78.80;;;;;;5014841;28;20029;-60
2023/05/23 04:21:33;;;;;;;19.02;13.85;;;13.80;75.90;;;;;;5015935;28;20485;-60
2023/05/23 04:24:00;;;;;;;20.30;14.90;;;13.90;77.30;;;;;;5014713;28;20045;-60
2023/05/23 04:26:25;;;;;;;21.08;13.65;;;14.10;72.70;;;;;;5014760;28;20018;-59
2023/05/23 04:28:53;;;;;;;19.67;12.95;;;14.20;74.60;;;;;;5014658;28;20386;-60
2023/05/23 04:31:21;;;;;;;18.85;13.68;;;14.30;72.00;;;;;;5014725;28;20026;-60
2023/05/23 04:33:48;;;;;;;21.85;13.98;;;14.50;73.10;;;;;;5014723;28;20025;-60
2023/05/23 04:36:13;;;;;;;19.88;13.70;;;14.70;70.40;;;;;;5014443;28;20513;-60
2023/05/23 04:38:39;;;;;;;22.50;15.13;;;14.80;63.70;;;;;;5014586;28;20033;-59
2023/05/23 04:41:08;;;;;;;18.77;14.43;;;15.00;72.40;;;;;;5014674;28;20462;-60
2023/05/23 04:43:36;;;;;;;20.35;13.90;;;15.20;68.90;;;;;;5014442;28;20042;-59
2023/05/23 04:46:05;;;;;;;14.68;13.02;;;15.40;66.30;;;;;;5014333;28;20080;-59
2023/05/23 04:48:33;;;;;;;14.40;12.88;;;15.70;59.30;;;;;;5014405;28;20553;-59
2023/05/23 04:51:01;;;;;;;14.52;12.07;;;16.00;67.70;;;;;;5013120;28;20028;-59
2023/05/23 04:53:27;;;;;;;17.52;12.05;;;16.30;1.00;;;;;;5014249;28;20022;-60
2023/05/23 04:55:53;;;;;;;19.90;11.50;;;16.60;1.00;;;;;;5014183;28;20485;-60
2023/05/23 04:58:19;;;;;;;16.80;10.77;;;16.80;1.00;;;;;;5014125;28;20030;-60
2023/05/23 05:00:44;;;;;;;20.15;10.95;;;17.00;1.00;;;;;;5014223;28;20034;-59
2023/05/23 05:03:10;;;;;;;15.52;11.25;;;17.20;1.00;;;;;;5014126;28;20036;-60
2023/05/23 05:05:36;;;;;;;14.10;10.60;;;17.30;1.00;;;;;;5014042;28;20080;-59
2023/05/23 05:08:02;;;;;;;12.73;11.25;;;17.40;1.00;;;;;;5013830;28;20026;-59
2023/05/23 05:10:27;;;;;;;10.75;9.65;;;17.50;1.00;;;;;;5013842;28;20100;-58
2023/05/23 05:12:53;;;;;;;12.82;10.73;;;17.50;1.00;;;;;;5013819;28;20018;-59
2023/05/23 05:15:18;;;;;;;13.10;10.30;;;17.60;1.00;;;;;;5013714;28;20026;-59
2023/05/23 05:17:53;;;;;;;14.07;10.50;;;17.60;1.00;;;;;;5013857;28;20060;-59
2023/05/23 05:20:20;;;;;;;13.70;11.05;;;17.70;1.00;;;;;;5013628;28;20053;-59
2023/05/23 05:22:46;;;;;;;13.77;11.40;;;17.70;1.00;;;;;;5013643;28;20393;-59
2023/05/23 05:25:12;;;;;;;17.20;11.38;;;17.70;1.00;;;;;;5013573;28;20022;-59
2023/05/23 05:27:38;;;;;;;17.05;10.80;;;17.80;99.90;;;;;;5013828;28;20113;-60
2023/05/23 05:30:09;;;;;;;20.00;11.48;;;17.90;99.90;;;;;;5013532;28;20515;-60
2023/05/23 05:32:34;;;;;;;13.00;10.73;;;18.00;1.00;;;;;;5013682;28;20072;-59
2023/05/23 05:35:01;;;;;;;13.80;10.85;;;18.10;1.00;;;;;;5013265;28;20050;-59
2023/05/23 05:37:26;;;;;;;12.90;11.52;;;18.10;1.00;;;;;;5013372;28;20401;-59
2023/05/23 05:39:53;;;;;;;14.32;11.48;;;18.20;1.00;;;;;;5013111;28;20083;-59
2023/05/23 05:42:20;;;;;;;12.98;10.77;;;18.20;1.00;;;;;;5013266;28;20034;-59
2023/05/23 05:44:46;;;;;;;16.90;11.75;;;18.20;1.00;;;;;;5013371;28;20026;-60
2023/05/23 05:47:12;;;;;;;17.10;11.88;;;18.30;1.00;;;;;;5013441;28;20037;-59
2023/05/23 05:49:38;;;;;;;18.15;12.15;;;18.50;1.00;;;;;;5013177;28;20669;-59
2023/05/23 05:52:06;;;;;;;14.07;11.32;;;18.40;1.00;;;;;;5013143;28;20052;-60
2023/05/23 05:54:31;;;;;;;14.45;11.57;;;18.40;1.00;;;;;;5013158;28;20018;-60
2023/05/23 05:56:57;;;;;;;18.10;12.82;;;18.40;1.00;;;;;;5013227;28;20025;-60
2023/05/23 05:59:23;;;;;;;15.43;11.77;;;18.20;1.00;;;;;;5013257;28;20029;-59
2023/05/23 06:01:50;;;;;;;17.73;11.60;;;18.30;1.00;;;;;;5012813;28;20465;-59
2023/05/23 06:04:16;;;;;;;18.55;12.07;;;18.30;1.00;;;;;;5012910;28;20038;-59
2023/05/23 06:06:42;;;;;;;19.92;11.73;;;18.30;1.00;;;;;;5012634;28;20029;-59
2023/05/23 06:09:09;;;;;;;18.08;11.57;;;18.30;1.00;;;;;;5013153;28;20064;-60
2023/05/23 06:11:39;;;;;;;14.07;11.63;;;18.40;1.00;;;;;;5012859;28;20026;-59
2023/05/23 06:14:05;;;;;;;16.08;12.05;;;18.40;1.00;;;;;;5011567;28;20038;-59
2023/05/23 06:16:31;;;;;;;16.20;11.82;;;18.50;1.00;;;;;;5012889;28;20036;-60
2023/05/23 06:18:56;;;;;;;22.08;11.93;;;18.60;1.00;;;;;;5012614;28;20030;-59
2023/05/23 06:21:22;;;;;;;15.82;12.55;;;18.90;1.00;;;;;;5012434;28;20049;-60
2023/05/23 06:23:47;;;;;;;14.98;10.98;;;19.10;99.90;;;;;;5012542;28;20068;-59
2023/05/23 06:26:13;;;;;;;16.23;12.02;;;19.40;99.90;;;;;;5012398;28;20532;-60
2023/05/23 06:28:39;;;;;;;16.10;11.65;;;19.50;99.90;;;;;;5012580;28;20028;-59
2023/05/23 06:31:04;;;;;;;12.13;10.93;;;19.70;99.90;;;;;;5012527;28;20052;-59
2023/05/23 06:33:31;;;;;;;22.55;11.68;;;19.80;99.90;;;;;;5012524;28;20389;-59
2023/05/23 06:35:56;;;;;;;15.10;12.05;;;19.90;99.90;;;;;;5012110;28;20026;-59
2023/05/23 06:38:22;;;;;;;17.00;10.88;;;20.20;99.90;;;;;;5011076;28;20033;-59
2023/05/23 06:40:48;;;;;;;16.67;12.05;;;20.20;1.00;;;;;;5012308;28;20076;-60
2023/05/23 06:43:13;;;;;;;16.05;12.00;;;20.10;99.90;;;;;;5012300;28;20034;-59
2023/05/23 06:45:39;;;;;;;15.70;12.10;;;20.20;1.00;;;;;;5012272;28;20440;-59
2023/05/23 06:48:05;;;;;;;14.18;11.65;;;20.20;99.90;;;;;;5012131;28;20049;-60
2023/05/23 06:50:31;;;;;;;24.40;11.30;;;20.30;1.00;;;;;;5012176;28;20473;-59
2023/05/23 06:52:56;;;;;;;15.57;11.85;;;20.50;99.90;;;;;;5012269;28;20432;-59
2023/05/23 06:55:22;;;;;;;14.65;12.07;;;20.30;99.90;;;;;;5012345;28;20042;-59
2023/05/23 06:57:50;;;;;;;21.10;11.48;;;20.30;99.90;;;;;;5012020;28;20362;-59
2023/05/23 07:00:17;;;;;;;13.90;11.30;;;20.10;1.00;;;;;;5012052;28;20033;-59
2023/05/23 07:02:44;;;;;;;13.85;11.52;;;19.90;99.90;;;;;;5011920;28;20028;-59
2023/05/23 07:05:10;;;;;;;15.38;10.90;;;19.60;99.90;;;;;;5011883;28;20018;-59
2023/05/23 07:07:36;;;;;;;20.58;12.27;;;19.40;1.00;;;;;;5012088;28;20116;-59
2023/05/23 07:10:01;;;;;;;14.23;11.27;;;19.30;99.90;;;;;;5012475;28;20048;-59
2023/05/23 07:12:27;;;;;;;15.25;13.27;;;19.30;99.90;;;;;;5011717;28;20029;-59
2023/05/23 07:14:53;;;;;;;20.70;13.07;;;19.10;99.90;;;;;;5011285;28;20109;-60
2023/05/23 07:17:18;;;;;;;17.83;11.35;;;19.10;99.90;;;;;;5011891;28;20026;-60
2023/05/23 07:19:45;;;;;;;23.55;12.48;;;19.20;99.90;;;;;;5011829;28;20033;-59
2023/05/23 07:22:10;;;;;;;19.25;12.55;;;19.20;99.90;;;;;;5010175;28;20018;-59
2023/05/23 07:24:37;;;;;;;18.02;11.85;;;19.40;99.90;;;;;;5011530;28;20033;-60
2023/05/23 07:27:02;;;;;;;14.50;11.95;;;19.50;99.90;;;;;;5010160;28;20033;-59
2023/05/23 07:29:28;;;;;;;14.45;11.70;;;19.80;99.90;;;;;;5010478;28;20577;-60
2023/05/23 07:31:54;;;;;;;15.75;13.00;;;19.70;1.00;;;;;;5011681;28;20034;-60
2023/05/23 07:34:19;;;;;;;16.42;11.00;;;19.80;1.00;;;;;;5011765;28;20433;-60
2023/05/23 07:36:46;;;;;;;19.38;12.00;;;20.10;99.90;;;;;;5011097;28;20053;-60
2023/05/23 07:39:12;;;;;;;13.02;11.32;;;20.20;1.00;;;;;;5011577;28;20026;-60
2023/05/23 07:41:37;;;;;;;18.75;13.57;;;20.50;99.90;;;;;;5010732;28;20107;-60
2023/05/23 07:44:03;;;;;;;17.73;10.88;;;20.50;99.90;;;;;;5011105;28;20418;-59
2023/05/23 07:46:28;;;;;;;16.15;11.25;;;20.50;1.00;;;;;;5011277;28;20497;-59
2023/05/23 07:48:55;;;;;;;16.42;11.80;;;20.20;1.00;;;;;;5011167;28;20034;-59
2023/05/23 07:51:21;;;;;;;19.77;12.73;;;20.40;99.90;;;;;;5011537;28;20022;-58
2023/05/23 07:53:53;;;;;;;18.58;14.30;;;20.40;1.00;;;;;;5010093;28;20030;-60
2023/05/23 07:56:18;;;;;;;15.68;10.95;;;20.80;99.90;;;;;;5011435;28;20038;-60
2023/05/23 07:58:44;;;;;;;16.15;12.80;;;20.90;99.90;;;;;;5011275;28;20034;-60
2023/05/23 08:01:10;;;;;;;12.48;11.25;;;20.90;99.90;;;;;;5011136;28;20153;-60
2023/05/23 08:03:36;;;;;;;14.68;11.85;;;21.10;25.40;;;;;;5011450;28;20034;-60
2023/05/23 08:06:02;;;;;;;24.60;13.82;;;21.10;64.90;;;;;;5011172;28;20117;-60
2023/05/23 08:08:27;;;;;;;21.85;14.27;;;21.10;99.90;;;;;;5011549;28;20426;-60
2023/05/23 08:10:53;;;;;;;15.43;12.82;;;21.40;73.90;;;;;;5011240;28;20022;-60
2023/05/23 08:13:18;;;;;;;18.48;12.25;;;21.50;1.00;;;;;;5011387;28;20030;-60
2023/05/23 08:15:44;;;;;;;16.55;12.20;;;21.70;99.90;;;;;;5011611;28;20022;-58
2023/05/23 08:18:10;;;;;;;20.30;14.85;;;21.90;1.00;;;;;;5011292;28;20373;-60
2023/05/23 08:20:35;;;;;;;20.08;13.18;;;21.80;99.90;;;;;;5010090;28;20518;-60
2023/05/23 08:23:02;;;;;;;26.17;12.63;;;21.90;99.90;;;;;;5011044;28;20136;-60
2023/05/23 08:25:31;;;;;;;17.52;11.98;;;22.20;99.90;;;;;;5011906;28;20161;-61
2023/05/23 08:27:58;;;;;;;18.63;12.23;;;22.50;23.10;;;;;;5014603;28;20109;-60
2023/05/23 08:30:25;;;;;;;15.18;11.40;;;22.40;1.00;;;;;;5014633;28;20754;-60
2023/05/23 08:32:59;;;;;;;16.30;11.75;;;22.70;99.90;;;;;;5014610;28;20037;-60
2023/05/23 08:35:28;;;;;;;13.63;11.40;;;22.90;99.90;;;;;;5013406;28;20029;-59
2023/05/23 08:37:54;;;;;;;13.13;9.93;;;23.30;99.90;;;;;;5012863;28;20045;-59
2023/05/23 08:40:21;;;;;;;12.32;9.82;;;23.40;90.30;;;;;;5014625;28;20018;-60
2023/05/23 08:42:50;;;;;;;12.20;8.93;;;23.50;52.90;;;;;;5014563;28;20046;-60
2023/05/23 08:45:16;;;;;;;15.00;9.63;;;23.30;1.00;;;;;;5014224;28;20026;-60
2023/05/23 08:47:43;;;;;;;13.35;10.30;;;23.10;99.90;;;;;;5013207;28;20026;-60
2023/05/23 08:50:18;;;;;;;19.60;9.40;;;23.00;1.00;;;;;;5014102;28;20061;-59
2023/05/23 08:52:49;;;;;;;15.30;9.88;;;23.00;1.00;;;;;;5014218;28;20030;-60
2023/05/23 08:55:16;;;;;;;19.88;10.98;;;23.10;99.90;;;;;;5014307;28;20021;-60
2023/05/23 08:57:42;;;;;;;10.13;9.05;;;22.90;99.90;;;;;;5014072;28;20072;-59
2023/05/23 09:00:16;;;;;;;13.95;10.50;;;23.20;1.00;;;;;;5014316;28;20113;-59
2023/05/23 09:02:43;;;;;;;26.20;10.98;;;23.10;99.90;;;;;;5014053;28;20072;-60
2023/05/23 09:05:10;;;;;;;14.82;11.90;;;23.10;1.00;;;;;;5014033;28;20033;-60
2023/05/23 09:07:36;;;;;;;16.48;11.65;;;23.50;1.00;;;;;;5014180;28;20478;-60
2023/05/23 09:10:04;;;;;;;17.95;12.00;;;23.20;46.10;;;;;;4996138;28;20030;-60
2023/05/23 09:12:29;;;;;;;19.88;11.70;;;23.20;99.90;;;;;;4983284;28;20062;-60
2023/05/23 09:14:56;;;;;;;17.20;12.50;;;22.70;61.10;;;;;;4984669;28;20069;-60
2023/05/23 09:17:22;;;;;;;14.25;11.45;;;22.20;99.90;;;;;;4983229;28;20030;-60
2023/05/23 09:19:48;;;;;;;17.90;12.75;;;22.20;1.00;;;;;;4983795;28;20026;-60
2023/05/23 09:22:14;;;;;;;19.73;13.20;;;22.50;14.20;;;;;;4983283;28;20030;-60
2023/05/23 09:24:40;;;;;;;27.77;16.33;;;22.40;99.90;;;;;;4983587;28;20160;-60
2023/05/23 09:27:07;;;;;;;15.30;12.38;;;22.30;59.50;;;;;;4982688;28;20323;-60
2023/05/23 09:29:39;;;;;;;17.58;13.60;;;22.70;99.90;;;;;;4982578;28;20022;-60
2023/05/23 09:32:16;;;;;;;13.70;12.20;;;22.70;99.90;;;;;;4982775;28;20121;-60
2023/05/23 09:35:05;;;;;;;13.07;11.70;;;22.80;23.20;;;;;;4983840;28;22420;-60
2023/05/23 09:37:36;;;;;;;15.68;12.23;;;23.00;1.00;;;;;;4983010;28;20108;-60
2023/05/23 09:40:08;;;;;;;15.73;11.15;;;23.30;99.90;;;;;;4982759;28;20041;-60
2023/05/23 09:42:35;;;;;;;17.13;11.47;;;23.90;1.00;;;;;;4983127;28;20073;-60
2023/05/23 09:45:01;;;;;;;14.65;10.40;;;23.70;1.00;;;;;;4983642;28;20034;-59
2023/05/23 09:47:27;;;;;;;13.63;9.88;;;24.30;99.90;;;;;;4982749;28;20590;-60
2023/05/23 09:49:53;;;;;;;12.18;9.93;;;24.70;99.90;;;;;;4982744;28;20037;-60
2023/05/23 09:52:21;;;;;;;11.98;9.63;;;24.70;99.90;;;;;;4983332;28;20100;-60
2023/05/23 09:54:47;;;;;;;13.95;10.15;;;24.70;99.90;;;;;;4983658;28;20026;-60
2023/05/23 09:57:15;;;;;;;16.13;10.68;;;23.70;99.90;;;;;;4981766;28;20557;-60
2023/05/23 09:59:49;;;;;;;18.52;12.32;;;23.70;1.00;;;;;;4984412;28;20034;-60
2023/05/23 10:02:22;;;;;;;17.50;10.63;;;23.30;99.90;;;;;;4993553;28;20026;-60
2023/05/23 10:04:49;;;;;;;14.60;11.07;;;23.20;1.00;;;;;;4993244;28;20030;-60
2023/05/23 10:07:22;;;;;;;15.23;10.63;;;23.10;1.00;;;;;;4993388;28;20092;-60
2023/05/23 10:09:55;;;;;;;11.98;10.70;;;23.20;30.00;;;;;;4992768;28;20030;-59
2023/05/23 10:12:50;;;;;;;18.95;10.93;;;23.40;1.00;;;;;;4992960;28;20027;-60
2023/05/23 10:15:18;;;;;;;18.48;12.15;;;23.10;1.00;;;;;;4993188;28;20117;-59
2023/05/23 10:17:55;;;;;;;15.38;12.13;;;23.20;99.90;;;;;;4992844;28;20057;-60
2023/05/23 10:20:24;;;;;;;21.15;13.75;;;23.30;1.00;;;;;;4993434;28;20031;-60
2023/05/23 10:22:51;;;;;;;21.88;14.07;;;23.40;99.90;;;;;;4991953;28;20035;-60
2023/05/23 10:25:17;;;;;;;15.80;12.73;;;22.50;51.40;;;;;;4993003;28;20413;-60
2023/05/23 10:27:43;;;;;;;18.67;14.02;;;22.50;1.00;;;;;;4992913;28;20022;-59
2023/05/23 10:30:09;;;;;;;21.08;14.88;;;22.60;1.00;;;;;;4992723;28;20493;-60
2023/05/23 10:32:37;;;;;;;20.50;14.43;;;23.30;99.90;;;;;;4993001;28;20037;-60
2023/05/23 10:35:28;;;;;;;16.92;13.68;;;23.70;99.90;;;;;;4992813;28;20374;-60
2023/05/23 10:38:19;;;;;;;16.30;13.20;;;23.70;1.00;;;;;;4992819;28;20038;-60
2023/05/23 10:40:57;;;;;;;20.33;13.75;;;23.90;1.00;;;;;;4992890;28;20037;-60
2023/05/23 10:43:44;;;;;;;24.10;16.98;;;24.30;1.00;;;;;;4992645;28;20023;-60
2023/05/23 10:46:13;;;;;;;17.42;14.10;;;23.90;99.90;;;;;;4992771;28;20027;-60
2023/05/23 10:48:43;;;;;;;21.30;13.40;;;24.70;99.90;;;;;;4992153;28;20033;-60
2023/05/23 10:51:10;;;;;;;16.63;13.55;;;25.00;1.00;;;;;;4987930;28;20030;-60
2023/05/23 10:53:39;;;;;;;17.98;14.80;;;24.70;99.90;;;;;;4981187;28;20018;-60
2023/05/23 10:56:06;;;;;;;19.70;12.90;;;24.50;99.90;;;;;;4993669;28;20112;-60
2023/05/23 10:58:34;;;;;;;14.55;12.85;;;24.90;99.90;;;;;;5000995;28;20073;-60
2023/05/23 11:01:03;;;;;;;19.58;13.43;;;25.40;99.90;;;;;;4981593;28;20053;-59
2023/05/23 11:03:32;;;;;;;15.35;13.48;;;25.20;1.00;;;;;;4981632;28;20030;-58
2023/05/23 11:05:58;;;;;;;16.83;13.85;;;25.40;1.00;;;;;;4980890;28;20046;-59
2023/05/23 11:08:24;;;;;;;17.80;14.30;;;25.30;1.00;;;;;;4981519;28;20036;-59
2023/05/23 11:11:01;;;;;;;24.13;14.88;;;25.20;1.00;;;;;;4981390;28;20054;-59
2023/05/23 11:14:01;;;;;;;23.08;16.38;;;24.70;1.00;;;;;;4982058;28;20026;-60
2023/05/23 11:16:38;;;;;;;21.45;14.82;;;24.00;99.90;;;;;;4981177;28;20370;-59
2023/05/23 11:19:27;;;;;;;18.15;12.30;;;22.70;99.90;;;;;;4982044;28;20038;-60
2023/05/23 11:22:02;;;;;;;29.35;13.13;;;21.50;99.90;;;;;;4980848;28;20124;-60
2023/05/23 11:24:53;;;;;;;21.98;14.38;;;20.80;99.90;;;;;;4981760;28;20033;-60
2023/05/23 11:27:36;;;;;;;25.63;17.40;;;20.10;1.00;;;;;;4981165;28;20506;-60
2023/05/23 11:30:12;;;;;;;24.38;16.83;;;19.50;1.00;;;;;;4981817;28;20095;-60
2023/05/23 11:32:38;;;;;;;30.42;16.77;;;19.10;1.00;;;;;;4980442;28;20045;-60
2023/05/23 11:35:06;;;;;;;24.27;17.65;;;18.80;24.80;;;;;;4981360;28;20133;-59
2023/05/23 11:37:33;;;;;;;25.17;18.60;;;18.70;54.30;;;;;;4981594;28;20130;-60
2023/05/23 11:40:00;;;;;;;29.63;20.17;;;18.60;68.90;;;;;;4980428;28;20156;-60
2023/05/23 11:42:26;;;;;;;31.60;21.13;;;18.60;63.90;;;;;;4981599;28;20034;-60
2023/05/23 11:44:52;;;;;;;27.60;21.40;;;18.50;59.90;;;;;;4981137;28;20041;-60
2023/05/23 11:47:19;;;;;;;36.90;25.90;;;18.40;66.50;;;;;;4980895;28;20053;-59
2023/05/23 11:49:46;;;;;;;30.85;20.02;;;18.40;66.90;;;;;;4981165;28;20041;-59
2023/05/23 11:52:12;;;;;;;29.80;20.65;;;18.40;62.60;;;;;;4981402;28;20033;-59
2023/05/23 11:54:42;;;;;;;23.27;19.38;;;18.40;56.50;;;;;;4980405;28;20471;-59
2023/05/23 11:57:08;;;;;;;28.05;21.65;;;18.40;59.50;;;;;;4980112;28;20066;-59
2023/05/23 11:59:34;;;;;;;40.50;25.65;;;18.30;59.40;;;;;;4981761;28;20038;-60
2023/05/23 12:02:02;;;;;;;25.85;20.58;;;18.40;70.00;;;;;;4983953;28;20089;-60
2023/05/23 12:04:28;;;;;;;30.45;21.30;;;18.20;58.50;;;;;;4992565;28;20371;-60
2023/05/23 12:06:53;;;;;;;27.52;19.45;;;18.30;70.20;;;;;;4995282;28;20092;-59
2023/05/23 12:09:19;;;;;;;24.00;19.73;;;18.10;69.70;;;;;;4995603;28;20045;-60
2023/05/23 12:11:45;;;;;;;20.83;16.38;;;18.00;64.40;;;;;;4995575;28;20035;-60
2023/05/23 12:14:17;;;;;;;24.17;16.45;;;18.10;63.30;;;;;;4995422;28;20022;-60
2023/05/23 12:16:45;;;;;;;16.88;14.18;;;18.10;54.20;;;;;;4994021;28;20026;-60
2023/05/23 12:19:11;;;;;;;17.00;13.45;;;18.00;41.70;;;;;;5011524;28;20032;-60
2023/05/23 12:21:44;;;;;;;22.65;16.73;;;17.90;56.60;;;;;;5014961;28;20361;-59
2023/05/23 12:24:22;;;;;;;17.58;14.60;;;17.80;63.00;;;;;;5014432;28;20299;-61
2023/05/23 12:26:57;;;;;;;18.25;13.88;;;17.80;68.00;;;;;;5013581;28;20058;-60
2023/05/23 12:29:30;;;;;;;17.77;15.82;;;17.80;62.90;;;;;;5013781;28;20026;-60
2023/05/23 12:31:59;;;;;;;;;;;17.80;76.00;;;;;;5013794;28;20068;-60
2023/05/23 12:34:25;;;;;;;19.63;15.30;;;17.70;74.40;;;;;;5013514;28;19909;-60